M I D A S
Marine Information and Data Acquisition System
Tripno 2000 of the Zeeleeuw from 2010-12-07 07:11:42 to 2010-12-07 15:12:22
Back to CruiseResearch ActivitiesStationsMapUnderway DataData graphs

EquipmentUnitsComment
TimeDGPSUTC
LatitudeDGPSDM.mWGS84
LongitudeDGPSDM.mWGS84
HeadingGyrodeg 
SOGDGPSknotsSpeed over ground
COGDGPSdegCourse over ground
DepthEcho soundermeters200 kHz
Missing or incorrect values are displayed as -999
Navigation data collected by the RV Zeeleeuw from 2010-12-07 07:20:27 to 2010-12-07 15:10:41
                                                                                    Next 1000 lines
Time Latitude Longitude Heading SOG COG Depth
2010-12-07 07:20:37 51°13.66 2°55.958 114 -999 181 6.6
2010-12-07 07:20:42 51°13.659 2°55.958 113.3 0.1 182 6.3
2010-12-07 07:20:47 51°13.659 2°55.958 112.6 -999 166 6.5
2010-12-07 07:20:52 51°13.659 2°55.958 112.1 -999 240 6.5
2010-12-07 07:20:57 51°13.659 2°55.958 111.4 -999 238 6.4
2010-12-07 07:21:02 51°13.659 2°55.958 110.8 0.1 190 6.5
2010-12-07 07:21:07 51°13.659 2°55.958 110.2 0.1 183 6.4
2010-12-07 07:21:12 51°13.659 2°55.958 109.7 0.1 186 6.4
2010-12-07 07:21:17 51°13.659 2°55.958 109 -999 260 6.4
2010-12-07 07:21:22 51°13.659 2°55.958 108.5 -999 235 6.4
2010-12-07 07:21:27 51°13.659 2°55.958 108 -999 222 6.4
2010-12-07 07:21:32 51°13.659 2°55.958 107.5 -999 237 6.4
2010-12-07 07:21:37 51°13.659 2°55.959 107.1 -999 293 6.5
2010-12-07 07:21:42 51°13.66 2°55.959 106.8 0.1 197 6.5
2010-12-07 07:21:47 51°13.66 2°55.959 106.4 0.1 329 6.4
2010-12-07 07:21:52 51°13.661 2°55.958 106.3 0.4 296 6.4
2010-12-07 07:21:57 51°13.661 2°55.956 106.5 0.9 299 6.4
2010-12-07 07:22:02 51°13.662 2°55.952 106.6 1.6 296 6.5
2010-12-07 07:22:07 51°13.663 2°55.948 106.7 2.3 293 6.5
2010-12-07 07:22:12 51°13.664 2°55.942 106.1 2.7 294 -999
2010-12-07 07:22:18 51°13.666 2°55.934 106.1 3.2 292 -999
2010-12-07 07:22:24 51°13.668 2°55.926 105.9 3.6 293 -999
2010-12-07 07:22:29 51°13.67 2°55.918 105.9 3.8 291 -999
2010-12-07 07:22:35 51°13.673 2°55.908 105.5 3.9 291 -999
2010-12-07 07:22:41 51°13.674 2°55.898 104.9 3.9 288 -999
2010-12-07 07:22:45 51°13.676 2°55.892 103.5 4 288 -999
2010-12-07 07:22:51 51°13.678 2°55.881 102.1 4.1 287 -999
2010-12-07 07:22:56 51°13.68 2°55.872 100.2 4.2 287 -999
2010-12-07 07:23:01 51°13.681 2°55.863 99 4.3 285 -999
2010-12-07 07:23:06 51°13.682 2°55.853 97.4 4.3 284 -999
2010-12-07 07:23:11 51°13.683 2°55.844 95.3 4.4 284 -999
2010-12-07 07:23:16 51°13.684 2°55.835 93.6 4.3 282 -999
2010-12-07 07:23:21 51°13.686 2°55.826 91.6 4.3 281 -999
2010-12-07 07:23:25 51°13.686 2°55.818 90.3 4.2 280 9.8
2010-12-07 07:23:31 51°13.687 2°55.808 88.9 4.1 278 9.9
2010-12-07 07:23:36 51°13.688 2°55.799 87.5 4 276 -999
2010-12-07 07:23:41 51°13.688 2°55.791 85.8 3.9 274 11.5
2010-12-07 07:23:45 51°13.688 2°55.784 83.4 3.7 272 11.6
2010-12-07 07:23:50 51°13.688 2°55.776 81.3 3.6 270 12.3
2010-12-07 07:23:55 51°13.688 2°55.769 78.7 3.4 267 -999
2010-12-07 07:24:01 51°13.687 2°55.76 75.8 3.3 267 -999
2010-12-07 07:24:05 51°13.687 2°55.755 73.4 3.1 263 11.9
2010-12-07 07:24:10 51°13.686 2°55.749 71.7 2.9 261 11.5
2010-12-07 07:24:15 51°13.686 2°55.743 69.3 2.7 260 11.3
2010-12-07 07:24:20 51°13.685 2°55.739 67 1.7 261 11.2
2010-12-07 07:24:25 51°13.685 2°55.737 64.7 0.9 260 11.2
2010-12-07 07:24:29 51°13.685 2°55.737 59.9 0.6 303 11.3
2010-12-07 07:24:34 51°13.685 2°55.736 53.5 0.4 313 11.3
2010-12-07 07:24:39 51°13.686 2°55.735 46.9 0.6 322 11.3
2010-12-07 07:24:44 51°13.686 2°55.735 42.9 0.5 335 11.3
2010-12-07 07:24:49 51°13.687 2°55.734 37.8 0.5 331 11.3
2010-12-07 07:24:54 51°13.688 2°55.734 33.7 0.4 352 11.3
2010-12-07 07:24:59 51°13.689 2°55.734 29.8 0.7 345 11.4
2010-12-07 07:25:03 51°13.69 2°55.734 25.9 0.8 356 11.5
2010-12-07 07:25:09 51°13.691 2°55.734 22.1 0.9 351 11.5
2010-12-07 07:25:13 51°13.692 2°55.733 18.1 0.9 356 11.6
2010-12-07 07:25:18 51°13.694 2°55.733 14.1 1.1 352 11.9
2010-12-07 07:25:23 51°13.695 2°55.733 10 1.3 354 12.3
2010-12-07 07:25:28 51°13.698 2°55.732 5.7 1.4 351 12.1
2010-12-07 07:25:33 51°13.7 2°55.732 1.8 1.5 349 12.1
2010-12-07 07:25:37 51°13.701 2°55.731 356.1 1.7 347 12
2010-12-07 07:25:42 51°13.704 2°55.73 351.3 1.7 341 12
2010-12-07 07:25:47 51°13.706 2°55.728 347 1.7 341 11.7
2010-12-07 07:25:52 51°13.709 2°55.727 343.9 1.8 337 11.5
2010-12-07 07:25:57 51°13.711 2°55.725 339.8 1.9 336 10.9
2010-12-07 07:26:02 51°13.714 2°55.723 336.8 2.1 333 10.8
2010-12-07 07:26:07 51°13.716 2°55.721 334 2.2 333 10.5
2010-12-07 07:26:12 51°13.719 2°55.718 332.4 2.4 330 10.6
2010-12-07 07:26:17 51°13.723 2°55.714 330.9 2.6 330 10.7
2010-12-07 07:26:22 51°13.726 2°55.711 330.3 2.8 330 10.8
2010-12-07 07:26:27 51°13.73 2°55.708 329.8 3 329 11.1
2010-12-07 07:26:32 51°13.734 2°55.704 329.7 3.3 329 11
2010-12-07 07:26:37 51°13.738 2°55.701 329.7 3.5 329 10.5
2010-12-07 07:26:41 51°13.741 2°55.698 329.7 1.1 328 10.6
2010-12-07 07:26:47 51°13.748 2°55.694 329.3 4.1 328 10.4
2010-12-07 07:26:52 51°13.753 2°55.689 328.9 3.4 327 10.2
2010-12-07 07:26:57 51°13.758 2°55.683 328.7 4.1 327 9.8
2010-12-07 07:27:01 51°13.763 2°55.678 328.8 4.7 328 9.5
2010-12-07 07:27:07 51°13.769 2°55.671 329.4 2.8 328 9.2
2010-12-07 07:27:12 51°13.774 2°55.664 330.4 4.9 330 9.3
2010-12-07 07:27:17 51°13.78 2°55.658 331.4 5.3 329 9.1
2010-12-07 07:27:21 51°13.785 2°55.653 332.3 5.4 331 9.1
2010-12-07 07:27:25 51°13.79 2°55.649 333.1 2.9 333 9
2010-12-07 07:27:32 51°13.802 2°55.644 333.5 4.6 333 8.9
2010-12-07 07:27:37 51°13.809 2°55.639 334 4.5 333 8.9
2010-12-07 07:27:42 51°13.816 2°55.633 334.9 5.7 334 8.8
2010-12-07 07:27:47 51°13.823 2°55.627 335.6 5.9 336 8.8
2010-12-07 07:27:52 51°13.83 2°55.621 336.1 5.9 335 8.8
2010-12-07 07:27:56 51°13.836 2°55.616 335.3 4.9 334 8.9
2010-12-07 07:28:02 51°13.845 2°55.609 334.6 3.9 334 8.9
2010-12-07 07:28:07 51°13.853 2°55.604 334.9 5.8 337 8.7
2010-12-07 07:28:12 51°13.861 2°55.598 335.6 6.3 337 8.9
2010-12-07 07:28:17 51°13.869 2°55.594 335.8 6.2 337 9
2010-12-07 07:28:22 51°13.877 2°55.587 335.7 6.2 339 9.5
2010-12-07 07:28:27 51°13.885 2°55.581 336.5 6.3 339 9.8
2010-12-07 07:28:32 51°13.893 2°55.575 336.8 6.3 338 9.9
2010-12-07 07:28:37 51°13.901 2°55.57 337 6.4 339 10.1
2010-12-07 07:28:42 51°13.909 2°55.565 336.9 6.4 337 10.3
2010-12-07 07:28:47 51°13.917 2°55.56 336.5 6.4 338 10.3
2010-12-07 07:28:53 51°13.927 2°55.554 336.6 6.4 337 -999
2010-12-07 07:28:58 51°13.936 2°55.548 337.1 6.4 339 10.4
2010-12-07 07:29:03 51°13.944 2°55.543 337.3 6.4 338 10.2
2010-12-07 07:29:08 51°13.952 2°55.538 337.1 6.4 338 10.2
2010-12-07 07:29:14 51°13.962 2°55.531 336.4 6.4 337 -999
2010-12-07 07:29:20 51°13.971 2°55.524 336.1 6.4 338 -999
2010-12-07 07:29:25 51°13.98 2°55.519 336.5 6.4 338 -999
2010-12-07 07:29:31 51°13.99 2°55.513 337.3 6.3 340 -999
2010-12-07 07:29:36 51°13.998 2°55.508 337.6 6.4 339 -999
2010-12-07 07:29:41 51°14.006 2°55.502 337.3 6.4 338 -999
2010-12-07 07:29:45 51°14.013 2°55.497 337.1 6.5 338 9.8
2010-12-07 07:29:51 51°14.023 2°55.492 337.2 6.5 339 -999
2010-12-07 07:29:56 51°14.031 2°55.486 337.5 6.3 338 -999
2010-12-07 07:30:01 51°14.039 2°55.48 336.9 6.4 337 -999
2010-12-07 07:30:05 51°14.046 2°55.476 336.2 6.5 337 -999
2010-12-07 07:30:11 51°14.055 2°55.469 335.1 6.5 336 -999
2010-12-07 07:30:16 51°14.064 2°55.463 334.3 6.5 335 -999
2010-12-07 07:30:21 51°14.071 2°55.457 334.3 6.4 335 -999
2010-12-07 07:30:26 51°14.08 2°55.451 334.7 6.4 335 -999
2010-12-07 07:30:31 51°14.088 2°55.446 335 6.4 336 -999
2010-12-07 07:30:36 51°14.096 2°55.44 335.1 6.4 335 -999
2010-12-07 07:30:41 51°14.104 2°55.434 335.1 6.4 336 -999
2010-12-07 07:30:46 51°14.112 2°55.428 335.4 6.4 336 -999
2010-12-07 07:30:51 51°14.12 2°55.422 335.8 6.3 336 -999
2010-12-07 07:30:56 51°14.128 2°55.416 335.9 6.4 335 -999
2010-12-07 07:31:01 51°14.136 2°55.41 335.1 6.4 335 -999
2010-12-07 07:31:06 51°14.144 2°55.405 334.5 6.3 335 -999
2010-12-07 07:31:11 51°14.152 2°55.399 333.2 6.3 334 -999
2010-12-07 07:31:16 51°14.16 2°55.392 332.3 6.4 334 -999
2010-12-07 07:31:21 51°14.168 2°55.386 331.8 6.3 332 -999
2010-12-07 07:31:25 51°14.174 2°55.381 331.8 6.3 335 -999
2010-12-07 07:31:31 51°14.183 2°55.373 330.6 6.3 332 -999
2010-12-07 07:31:36 51°14.191 2°55.366 329.9 6.3 332 -999
2010-12-07 07:31:41 51°14.198 2°55.359 329.3 6.4 329 -999
2010-12-07 07:31:45 51°14.204 2°55.353 328 6.3 329 -999
2010-12-07 07:31:51 51°14.213 2°55.344 326.7 6.3 328 -999
2010-12-07 07:31:56 51°14.221 2°55.336 326.4 6.3 326 -999
2010-12-07 07:32:01 51°14.228 2°55.328 326.5 6.4 327 -999
2010-12-07 07:32:06 51°14.235 2°55.32 325.6 6.4 325 -999
2010-12-07 07:32:11 51°14.243 2°55.312 324.7 6.4 325 -999
2010-12-07 07:32:16 51°14.25 2°55.305 324.8 6.5 326 -999
2010-12-07 07:32:21 51°14.258 2°55.297 325.6 6.5 327 -999
2010-12-07 07:32:26 51°14.265 2°55.289 325.8 6.4 327 -999
2010-12-07 07:32:31 51°14.273 2°55.281 325.2 6.4 326 -999
2010-12-07 07:32:36 51°14.28 2°55.273 324.6 6.4 326 -999
2010-12-07 07:32:41 51°14.287 2°55.265 325 6.4 326 -999
2010-12-07 07:32:46 51°14.295 2°55.257 325.7 6.4 326 -999
2010-12-07 07:32:51 51°14.302 2°55.249 325.8 6.5 325 -999
2010-12-07 07:32:56 51°14.31 2°55.241 324.9 6.5 326 -999
2010-12-07 07:33:01 51°14.317 2°55.233 324.5 6.6 326 -999
2010-12-07 07:33:05 51°14.323 2°55.226 324.5 6.6 326 -999
2010-12-07 07:33:11 51°14.332 2°55.215 324.5 6.7 324 9.5
2010-12-07 07:33:16 51°14.34 2°55.207 325 6.8 326 -999
2010-12-07 07:33:21 51°14.348 2°55.199 325.2 6.8 325 9.8
2010-12-07 07:33:25 51°14.354 2°55.192 325 6.8 327 9.7
2010-12-07 07:33:30 51°14.362 2°55.184 325.4 7 326 9.7
2010-12-07 07:33:35 51°14.37 2°55.176 326.4 6.9 328 9.4
2010-12-07 07:33:40 51°14.379 2°55.168 327.4 6.9 327 9.7
2010-12-07 07:33:45 51°14.387 2°55.16 327.6 7.1 328 -999
2010-12-07 07:33:50 51°14.395 2°55.151 327.2 7 326 9.5
2010-12-07 07:33:55 51°14.403 2°55.143 326.9 7.2 327 -999
2010-12-07 07:34:00 51°14.412 2°55.134 327.6 7.3 328 9.5
2010-12-07 07:34:05 51°14.421 2°55.125 327.8 7.4 327 9.5
2010-12-07 07:34:10 51°14.43 2°55.116 326.9 7.5 327 9.5
2010-12-07 07:34:14 51°14.436 2°55.109 326.6 7.6 327 9.7
2010-12-07 07:34:20 51°14.447 2°55.099 326.9 7.7 328 9.8
2010-12-07 07:34:25 51°14.456 2°55.089 327.4 7.8 327 10.4
2010-12-07 07:34:29 51°14.463 2°55.081 326.8 8 327 10.3
2010-12-07 07:34:34 51°14.472 2°55.071 326.1 8.1 326 -999
2010-12-07 07:34:41 51°14.485 2°55.058 325.5 8.1 326 10.6
2010-12-07 07:34:45 51°14.493 2°55.05 326.1 8.1 327 10.1
2010-12-07 07:34:50 51°14.503 2°55.04 327.1 8.2 326 10.1
2010-12-07 07:34:55 51°14.512 2°55.029 327.8 8.3 326 10.3
2010-12-07 07:35:00 51°14.522 2°55.019 327.7 8.4 324 10.6
2010-12-07 07:35:05 51°14.531 2°55.008 326.4 8.3 323 10.8
2010-12-07 07:35:10 51°14.54 2°54.998 325.3 8.4 324 10.7
2010-12-07 07:35:14 51°14.548 2°54.989 325.6 8.4 323 10.8
2010-12-07 07:35:19 51°14.557 2°54.977 326.6 8.4 322 10.8
2010-12-07 07:35:24 51°14.566 2°54.966 326.9 8.5 322 10.7
2010-12-07 07:35:29 51°14.575 2°54.954 326.2 8.5 320 10.8
2010-12-07 07:35:34 51°14.584 2°54.942 325.3 8.6 320 10.7
2010-12-07 07:35:39 51°14.593 2°54.929 325.2 8.6 319 10.6
2010-12-07 07:35:44 51°14.602 2°54.916 325 8.7 318 10.4
2010-12-07 07:35:49 51°14.611 2°54.903 325.2 8.7 317 10.5
2010-12-07 07:35:53 51°14.618 2°54.892 325.5 8.8 317 10.6
2010-12-07 07:35:58 51°14.627 2°54.879 325.5 8.9 318 10.8
2010-12-07 07:36:03 51°14.637 2°54.866 326.3 8.9 319 10.7
2010-12-07 07:36:08 51°14.646 2°54.853 327.6 8.9 319 10.5
2010-12-07 07:36:13 51°14.655 2°54.84 327.6 9 317 10.6
2010-12-07 07:36:17 51°14.662 2°54.828 324.7 9 314 10.7
2010-12-07 07:36:22 51°14.669 2°54.813 319.9 9 308 10.8
2010-12-07 07:36:27 51°14.676 2°54.796 314 9 303 10.7
2010-12-07 07:36:32 51°14.682 2°54.778 308.1 9.1 297 10.4
2010-12-07 07:36:37 51°14.687 2°54.759 302.3 9.2 294 10.9
2010-12-07 07:36:42 51°14.691 2°54.74 297.1 9.2 290 10.9
2010-12-07 07:36:47 51°14.694 2°54.721 292.2 9.2 285 10.7
2010-12-07 07:36:52 51°14.696 2°54.7 287.3 9.2 281 10.7
2010-12-07 07:36:57 51°14.697 2°54.68 282.2 9.2 277 10.9
2010-12-07 07:37:02 51°14.697 2°54.659 277 9.2 271 10.6
2010-12-07 07:37:07 51°14.696 2°54.638 271.9 9.5 266 10.6
2010-12-07 07:37:12 51°14.694 2°54.617 266.7 9.6 261 10.6
2010-12-07 07:37:17 51°14.692 2°54.596 261.3 9.7 259 10.3
2010-12-07 07:37:22 51°14.687 2°54.575 256.2 9.8 254 9.2
2010-12-07 07:37:27 51°14.682 2°54.555 251.2 9.9 249 9.2
2010-12-07 07:37:32 51°14.676 2°54.535 246.9 10.1 245 9.1
2010-12-07 07:37:37 51°14.67 2°54.515 243.2 10.1 242 9.1
2010-12-07 07:37:42 51°14.662 2°54.495 239.2 10.3 238 9.2
2010-12-07 07:37:47 51°14.653 2°54.477 234.7 10.5 234 9.1
2010-12-07 07:37:52 51°14.644 2°54.458 230.8 10.7 231 9.2
2010-12-07 07:37:57 51°14.634 2°54.44 227.8 10.7 230 9
2010-12-07 07:38:02 51°14.624 2°54.423 224.7 10.8 227 9
2010-12-07 07:38:07 51°14.614 2°54.405 223 11 228 9.1
2010-12-07 07:38:12 51°14.603 2°54.387 223.3 11.3 226 8.9
2010-12-07 07:38:17 51°14.592 2°54.368 223.8 11.4 227 8.9
2010-12-07 07:38:22 51°14.582 2°54.348 226 11.4 231 8.9
2010-12-07 07:38:27 51°14.571 2°54.329 225.1 11.7 228 9
2010-12-07 07:38:32 51°14.562 2°54.308 228.2 11.6 234 8.9
2010-12-07 07:38:37 51°14.552 2°54.288 230.2 11.6 233 8.8
2010-12-07 07:38:42 51°14.542 2°54.267 229.4 11.8 232 8.9
2010-12-07 07:38:47 51°14.533 2°54.246 231.4 11.8 234 9
2010-12-07 07:38:52 51°14.523 2°54.225 231.3 11.8 235 8.6
2010-12-07 07:38:57 51°14.514 2°54.203 231.6 11.9 235 8.7
2010-12-07 07:39:02 51°14.505 2°54.181 232.8 11.9 237 8.6
2010-12-07 07:39:07 51°14.495 2°54.16 232.5 12 234 8.8
2010-12-07 07:39:12 51°14.486 2°54.138 233.1 12 237 8.6
2010-12-07 07:39:17 51°14.476 2°54.116 233 12 233 8.8
2010-12-07 07:39:22 51°14.467 2°54.093 233.1 12.1 237 8.6
2010-12-07 07:39:27 51°14.458 2°54.072 233.5 12 235 8.6
2010-12-07 07:39:32 51°14.448 2°54.05 233.1 12.1 235 8.7
2010-12-07 07:39:37 51°14.439 2°54.028 233.1 12.1 236 8.5
2010-12-07 07:39:42 51°14.429 2°54.006 233.1 12.1 235 8.6
2010-12-07 07:39:47 51°14.419 2°53.984 233.3 12.1 235 8.5
2010-12-07 07:39:52 51°14.41 2°53.962 233 12.2 236 8.7
2010-12-07 07:39:57 51°14.4 2°53.94 233.1 12.1 235 8.6
2010-12-07 07:40:01 51°14.392 2°53.923 232.8 12.2 235 8.4
2010-12-07 07:40:07 51°14.381 2°53.897 232.8 12.1 234 8.4
2010-12-07 07:40:12 51°14.371 2°53.874 232.1 12.2 235 8.5
2010-12-07 07:40:17 51°14.361 2°53.853 232.6 12.1 235 8.5
2010-12-07 07:40:22 51°14.351 2°53.831 232.4 12.2 234 8.4
2010-12-07 07:40:27 51°14.341 2°53.809 232 12.3 235 8.5
2010-12-07 07:40:32 51°14.332 2°53.787 232.7 12.2 234 8.3
2010-12-07 07:40:37 51°14.322 2°53.765 232.1 12.2 234 8.5
2010-12-07 07:40:42 51°14.312 2°53.742 232.3 12.3 235 8.4
2010-12-07 07:40:47 51°14.302 2°53.72 232.6 12.3 234 8.6
2010-12-07 07:40:52 51°14.293 2°53.698 232.4 12.3 235 8.4
2010-12-07 07:40:57 51°14.282 2°53.676 232.6 12.3 234 8.6
2010-12-07 07:41:02 51°14.273 2°53.654 232.6 12.3 236 8.4
2010-12-07 07:41:07 51°14.262 2°53.632 232.8 12.3 233 8.6
2010-12-07 07:41:12 51°14.253 2°53.609 232.1 12.4 237 8.4
2010-12-07 07:41:17 51°14.243 2°53.587 233.1 12.4 234 8.6
2010-12-07 07:41:22 51°14.233 2°53.565 232.5 12.4 235 8.5
2010-12-07 07:41:27 51°14.223 2°53.543 233.1 12.3 234 8.6
2010-12-07 07:41:32 51°14.213 2°53.52 232.7 12.4 235 8.6
2010-12-07 07:41:37 51°14.203 2°53.498 233.1 12.4 235 8.5
2010-12-07 07:41:42 51°14.193 2°53.476 232.8 12.4 235 8.6
2010-12-07 07:41:47 51°14.183 2°53.453 232.7 12.4 234 8.6
2010-12-07 07:41:52 51°14.173 2°53.431 232.5 12.4 235 8.6
2010-12-07 07:41:57 51°14.163 2°53.409 232.6 12.4 234 8.7
2010-12-07 07:42:02 51°14.153 2°53.386 232.3 12.4 234 8.7
2010-12-07 07:42:07 51°14.143 2°53.364 232.2 12.4 235 8.7
2010-12-07 07:42:12 51°14.133 2°53.341 232.8 12.5 234 8.6
2010-12-07 07:42:17 51°14.123 2°53.319 232.3 12.5 235 8.7
2010-12-07 07:42:22 51°14.113 2°53.297 232.9 12.5 235 8.7
2010-12-07 07:42:27 51°14.103 2°53.274 232.3 12.5 235 8.7
2010-12-07 07:42:32 51°14.093 2°53.252 232.7 12.4 234 8.8
2010-12-07 07:42:37 51°14.083 2°53.23 232.3 12.5 234 8.8
2010-12-07 07:42:42 51°14.073 2°53.207 232.4 12.5 235 8.8
2010-12-07 07:42:47 51°14.063 2°53.185 232.3 12.5 235 8.8
2010-12-07 07:42:52 51°14.053 2°53.162 232.3 12.5 234 8.8
2010-12-07 07:42:57 51°14.043 2°53.139 233.5 12.5 237 8.9
2010-12-07 07:43:02 51°14.034 2°53.117 234.7 12.4 236 8.8
2010-12-07 07:43:07 51°14.024 2°53.094 234.5 12.5 237 8.9
2010-12-07 07:43:12 51°14.015 2°53.07 235.7 12.5 237 8.8
2010-12-07 07:43:17 51°14.005 2°53.047 236 12.5 237 8.9
2010-12-07 07:43:22 51°13.996 2°53.023 236.8 12.5 239 9
2010-12-07 07:43:27 51°13.987 2°53 236.7 12.5 239 8.9
2010-12-07 07:43:32 51°13.978 2°52.977 237 12.5 239 9
2010-12-07 07:43:37 51°13.969 2°52.953 237.1 12.5 239 8.9
2010-12-07 07:43:42 51°13.96 2°52.929 237.2 12.6 237 9
2010-12-07 07:43:47 51°13.951 2°52.905 237.1 12.5 239 9
2010-12-07 07:43:52 51°13.941 2°52.882 237.2 12.5 237 9
2010-12-07 07:43:57 51°13.932 2°52.858 236.5 12.6 238 9
2010-12-07 07:44:02 51°13.923 2°52.835 236.9 12.5 239 9.1
2010-12-07 07:44:07 51°13.914 2°52.812 236.6 12.6 238 9
2010-12-07 07:44:12 51°13.905 2°52.788 236.6 12.6 238 9.1
2010-12-07 07:44:17 51°13.896 2°52.764 237 12.5 239 9
2010-12-07 07:44:22 51°13.886 2°52.741 237 12.5 238 9.1
2010-12-07 07:44:27 51°13.877 2°52.717 237.4 12.6 239 9.2
2010-12-07 07:44:32 51°13.868 2°52.693 237.5 12.6 239 9.2
2010-12-07 07:44:37 51°13.859 2°52.67 237.5 12.5 238 9.1
2010-12-07 07:44:42 51°13.85 2°52.646 237 12.6 238 9.2
2010-12-07 07:44:47 51°13.841 2°52.622 237 12.5 239 9
2010-12-07 07:44:52 51°13.832 2°52.599 237.1 12.6 237 9.3
2010-12-07 07:44:57 51°13.823 2°52.575 236.9 12.6 239 9.2
2010-12-07 07:45:02 51°13.813 2°52.552 237 12.6 237 9.1
2010-12-07 07:45:07 51°13.804 2°52.528 236.5 12.6 239 9.3
2010-12-07 07:45:12 51°13.795 2°52.504 237 12.6 238 9.2
2010-12-07 07:45:17 51°13.785 2°52.481 236.9 12.6 238 9.2
2010-12-07 07:45:22 51°13.777 2°52.456 237.6 12.6 239 9.3
2010-12-07 07:45:27 51°13.768 2°52.432 239.2 12.5 240 9.2
2010-12-07 07:45:32 51°13.76 2°52.408 239.5 12.6 242 9.4
2010-12-07 07:45:37 51°13.752 2°52.383 241.1 12.5 243 9.3
2010-12-07 07:45:42 51°13.743 2°52.359 241.2 12.6 241 9.4
2010-12-07 07:45:47 51°13.736 2°52.334 242 12.5 243 9.2
2010-12-07 07:45:52 51°13.727 2°52.31 242.4 12.5 241 9.3
2010-12-07 07:45:57 51°13.72 2°52.285 241.9 12.5 244 9.3
2010-12-07 07:46:02 51°13.711 2°52.26 242.2 12.5 242 9.4
2010-12-07 07:46:07 51°13.704 2°52.235 242.2 12.6 243 9.4
2010-12-07 07:46:12 51°13.696 2°52.21 242.3 12.6 244 9.3
2010-12-07 07:46:17 51°13.688 2°52.185 242.2 12.6 242 9.4
2010-12-07 07:46:22 51°13.68 2°52.161 242.4 12.5 242 9.3
2010-12-07 07:46:27 51°13.672 2°52.136 241.8 12.6 243 9.4
2010-12-07 07:46:32 51°13.664 2°52.112 242.3 12.6 242 9.3
2010-12-07 07:46:37 51°13.656 2°52.087 241.8 12.6 242 9.6
2010-12-07 07:46:42 51°13.648 2°52.062 241.9 12.6 244 9.2
2010-12-07 07:46:47 51°13.64 2°52.038 241.8 12.7 242 9.5
2010-12-07 07:46:52 51°13.632 2°52.013 241.7 12.6 243 9.4
2010-12-07 07:46:57 51°13.623 2°51.989 241.6 12.6 241 9.6
2010-12-07 07:47:02 51°13.616 2°51.965 241.4 12.5 243 9.4
2010-12-07 07:47:07 51°13.607 2°51.94 241.5 12.6 241 9.6
2010-12-07 07:47:12 51°13.599 2°51.915 241.2 12.6 244 9.5
2010-12-07 07:47:17 51°13.591 2°51.891 241.8 12.5 241 9.5
2010-12-07 07:47:22 51°13.583 2°51.867 241.4 12.3 243 9.4
2010-12-07 07:47:27 51°13.575 2°51.844 241.4 12 242 9.6
2010-12-07 07:47:32 51°13.568 2°51.822 242 11.4 243 9.6
2010-12-07 07:47:37 51°13.56 2°51.8 241.8 11.1 242 9.7
2010-12-07 07:47:42 51°13.554 2°51.779 241.9 10.8 243 9.7
2010-12-07 07:47:47 51°13.547 2°51.759 242.1 10.4 242 9.7
2010-12-07 07:47:52 51°13.541 2°51.739 242.2 9.9 243 9.6
2010-12-07 07:47:57 51°13.535 2°51.721 242.2 9.6 242 9.8
2010-12-07 07:48:02 51°13.529 2°51.702 241.9 9.3 243 9.7
2010-12-07 07:48:07 51°13.523 2°51.685 242 8.9 242 9.8
2010-12-07 07:48:12 51°13.518 2°51.669 241.7 8.6 242 9.7
2010-12-07 07:48:17 51°13.512 2°51.653 241.6 8.3 240 9.9
2010-12-07 07:48:22 51°13.507 2°51.637 241.1 8 242 9.9
2010-12-07 07:48:27 51°13.502 2°51.623 240.4 7.7 240 9.8
2010-12-07 07:48:32 51°13.497 2°51.609 239.6 7.4 241 9.8
2010-12-07 07:48:37 51°13.492 2°51.596 238.7 7.2 239 9.8
2010-12-07 07:48:42 51°13.487 2°51.582 237.3 7 239 9.9
2010-12-07 07:48:47 51°13.482 2°51.57 236.6 6.9 237 9.9
2010-12-07 07:48:52 51°13.477 2°51.557 236 6.8 238 9.9
2010-12-07 07:48:57 51°13.472 2°51.545 235.3 6.7 238 9.9
2010-12-07 07:49:01 51°13.467 2°51.535 235.3 6.7 237 9.9
2010-12-07 07:49:07 51°13.462 2°51.521 236 6.5 237 10
2010-12-07 07:49:12 51°13.457 2°51.509 236.7 6.4 239 9.9
2010-12-07 07:49:17 51°13.453 2°51.497 237.4 6.2 239 9.8
2010-12-07 07:49:22 51°13.449 2°51.486 238.3 5.9 238 10.1
2010-12-07 07:49:27 51°13.445 2°51.475 239 5.7 240 10
2010-12-07 07:49:32 51°13.441 2°51.465 239.4 5.4 240 9.9
2010-12-07 07:49:37 51°13.438 2°51.455 240.1 5.1 242 9.9
2010-12-07 07:49:42 51°13.435 2°51.446 240.4 4.7 240 9.9
2010-12-07 07:49:47 51°13.431 2°51.438 241 4.2 240 10
2010-12-07 07:49:53 51°13.428 2°51.43 240.7 3.8 241 9.9
2010-12-07 07:49:57 51°13.426 2°51.425 240.9 3.4 238 10
2010-12-07 07:50:01 51°13.425 2°51.42 240.4 2.9 240 10.1
2010-12-07 07:50:07 51°13.423 2°51.415 239.7 2.4 239 10
2010-12-07 07:50:12 51°13.421 2°51.411 238.9 2.2 233 10.2
2010-12-07 07:50:17 51°13.42 2°51.406 238.1 2.3 244 10
2010-12-07 07:50:22 51°13.418 2°51.402 237.3 2.2 233 10.1
2010-12-07 07:50:27 51°13.417 2°51.398 236.4 2.2 243 10.1
2010-12-07 07:50:32 51°13.415 2°51.394 235.9 2.2 236 9.9
2010-12-07 07:50:37 51°13.413 2°51.39 235 2.2 243 9.9
2010-12-07 07:50:42 51°13.412 2°51.386 234.5 2.2 237 10
2010-12-07 07:50:47 51°13.41 2°51.381 233.9 2.2 243 10
2010-12-07 07:50:52 51°13.409 2°51.377 233.7 2.2 236 10
2010-12-07 07:50:57 51°13.407 2°51.373 233.3 2.1 241 10.2
2010-12-07 07:51:01 51°13.406 2°51.37 233.1 2.1 237 10.1
2010-12-07 07:51:07 51°13.404 2°51.365 233 2.2 243 10
2010-12-07 07:51:12 51°13.402 2°51.362 232.5 2.2 238 10.1
2010-12-07 07:51:17 51°13.401 2°51.357 232.5 2.1 241 10.1
2010-12-07 07:51:21 51°13.399 2°51.354 232.2 2.2 238 10.1
2010-12-07 07:51:27 51°13.398 2°51.349 231.9 2.2 241 10
2010-12-07 07:51:32 51°13.396 2°51.346 231.8 2.1 236 10
2010-12-07 07:51:37 51°13.395 2°51.341 231.6 2.2 241 10.1
2010-12-07 07:51:42 51°13.393 2°51.337 231.5 2.1 238 9.9
2010-12-07 07:51:47 51°13.392 2°51.333 231.1 2.2 241 10
2010-12-07 07:51:52 51°13.39 2°51.329 231 2.1 239 10
2010-12-07 07:51:57 51°13.388 2°51.326 230.9 2.1 236 10
2010-12-07 07:52:02 51°13.387 2°51.322 230.7 2.1 239 10
2010-12-07 07:52:07 51°13.385 2°51.318 230.5 2.1 238 9.9
2010-12-07 07:52:12 51°13.384 2°51.314 230.7 2.1 237 10.1
2010-12-07 07:52:17 51°13.382 2°51.31 230.3 2.1 238 10
2010-12-07 07:52:22 51°13.38 2°51.306 230.5 2.1 235 10.1
2010-12-07 07:52:27 51°13.379 2°51.302 230.5 2.1 241 10
2010-12-07 07:52:32 51°13.377 2°51.298 230.4 2.1 235 9.9
2010-12-07 07:52:37 51°13.376 2°51.294 230.3 2.1 239 10
2010-12-07 07:52:42 51°13.374 2°51.291 230.4 2 234 10.1
2010-12-07 07:52:47 51°13.373 2°51.287 230.3 2 241 10.1
2010-12-07 07:52:52 51°13.371 2°51.283 230.2 2 237 9.9
2010-12-07 07:52:57 51°13.37 2°51.279 230.1 2.1 235 10
2010-12-07 07:53:01 51°13.369 2°51.276 230.1 2.1 239 10
2010-12-07 07:53:07 51°13.367 2°51.272 230.1 2 234 10.1
2010-12-07 07:53:12 51°13.365 2°51.268 229.9 2.1 238 9.9
2010-12-07 07:53:17 51°13.363 2°51.264 229.8 2 230 10.1
2010-12-07 07:53:22 51°13.362 2°51.26 229.8 2 239 10.2
2010-12-07 07:53:27 51°13.361 2°51.257 229.7 2 236 10.2
2010-12-07 07:53:32 51°13.359 2°51.253 229.4 2 239 10.1
2010-12-07 07:53:37 51°13.357 2°51.249 229.4 2 237 10
2010-12-07 07:53:42 51°13.356 2°51.246 229.5 2 237 10.1
2010-12-07 07:53:47 51°13.354 2°51.242 229.2 2.1 239 10.1
2010-12-07 07:53:52 51°13.353 2°51.238 229.2 2 238 10
2010-12-07 07:53:57 51°13.351 2°51.234 229 2 236 10.1
2010-12-07 07:54:01 51°13.35 2°51.231 228.9 2 239 10.1
2010-12-07 07:54:07 51°13.349 2°51.226 228.9 2 239 10
2010-12-07 07:54:13 51°13.347 2°51.223 228.7 2 236 10.2
2010-12-07 07:54:17 51°13.345 2°51.22 228.7 2 237 10
2010-12-07 07:54:21 51°13.344 2°51.217 228.5 2.1 239 10
2010-12-07 07:54:27 51°13.343 2°51.212 228.6 2 238 10.1
2010-12-07 07:54:32 51°13.341 2°51.208 228.7 2 238 10.2
2010-12-07 07:54:37 51°13.34 2°51.204 228.5 1.9 238 10
2010-12-07 07:54:42 51°13.338 2°51.201 228.7 1.9 234 10.2
2010-12-07 07:54:47 51°13.337 2°51.197 228.6 2 238 10.4
2010-12-07 07:54:52 51°13.336 2°51.193 228.6 2 238 10
2010-12-07 07:54:57 51°13.334 2°51.19 228.4 2 232 10.1
2010-12-07 07:55:02 51°13.333 2°51.186 228.4 2 240 10.1
2010-12-07 07:55:07 51°13.331 2°51.183 228.5 2 235 10.1
2010-12-07 07:55:12 51°13.329 2°51.179 228.1 2 240 10.1
2010-12-07 07:55:17 51°13.328 2°51.175 228.2 2 233 10.1
2010-12-07 07:55:22 51°13.327 2°51.171 228 2 240 10.2
2010-12-07 07:55:27 51°13.325 2°51.168 228 2 235 10.2
2010-12-07 07:55:32 51°13.324 2°51.164 227.6 2 241 10.2
2010-12-07 07:55:37 51°13.322 2°51.161 227.6 1.9 235 10.1
2010-12-07 07:55:42 51°13.32 2°51.157 227.5 2 239 10.3
2010-12-07 07:55:47 51°13.319 2°51.153 227.6 1.9 235 10.2
2010-12-07 07:55:52 51°13.318 2°51.15 227.1 2 240 10.2
2010-12-07 07:55:57 51°13.316 2°51.146 227.2 2 237 10.1
2010-12-07 07:56:02 51°13.314 2°51.142 227.2 2 234 10.2
2010-12-07 07:56:07 51°13.313 2°51.138 226.8 2.2 236 10.3
2010-12-07 07:56:12 51°13.311 2°51.134 225.8 2.4 233 10.1
2010-12-07 07:56:17 51°13.309 2°51.13 223.2 2.5 231 10.2
2010-12-07 07:56:22 51°13.306 2°51.125 220.2 2.6 231 10.2
2010-12-07 07:56:27 51°13.304 2°51.121 216.3 2.8 227 10.2
2010-12-07 07:56:32 51°13.3 2°51.117 212.1 2.9 223 10.4
2010-12-07 07:56:37 51°13.297 2°51.112 208.1 3 225 10.1
2010-12-07 07:56:41 51°13.294 2°51.109 203.3 3.2 216 10.2
2010-12-07 07:56:47 51°13.29 2°51.104 199 3.4 214 10.2
2010-12-07 07:56:52 51°13.285 2°51.101 193.3 3.6 206 10.1
2010-12-07 07:56:57 51°13.281 2°51.097 187.4 3.6 204 10.1
2010-12-07 07:57:02 51°13.276 2°51.095 181.8 3.6 198 10.1
2010-12-07 07:57:07 51°13.272 2°51.092 176.3 3.8 195 10.2
2010-12-07 07:57:12 51°13.266 2°51.091 172.5 3.8 193 10
2010-12-07 07:57:17 51°13.26 2°51.089 169.2 4.1 190 10.1
2010-12-07 07:57:22 51°13.254 2°51.088 167.7 4.3 188 10.1
2010-12-07 07:57:27 51°13.248 2°51.086 166.5 4.5 188 10
2010-12-07 07:57:32 51°13.242 2°51.085 165.3 4.7 185 10.1
2010-12-07 07:57:37 51°13.235 2°51.084 164.1 4.9 185 10.1
2010-12-07 07:57:41 51°13.229 2°51.084 163.3 5 182 10
2010-12-07 07:57:47 51°13.221 2°51.083 162.4 5.2 183 10
2010-12-07 07:57:52 51°13.214 2°51.083 161.6 5.3 180 10
2010-12-07 07:57:57 51°13.206 2°51.083 160.7 5.5 181 10
2010-12-07 07:58:01 51°13.2 2°51.084 159.8 5.5 178 9.9
2010-12-07 07:58:07 51°13.19 2°51.084 159.4 5.7 179 10
2010-12-07 07:58:12 51°13.182 2°51.084 158.3 5.7 177 9.9
2010-12-07 07:58:17 51°13.175 2°51.084 157.5 5.7 178 9.9
2010-12-07 07:58:22 51°13.167 2°51.085 156.9 5.5 176 9.9
2010-12-07 07:58:27 51°13.159 2°51.086 156.5 5.5 177 9.9
2010-12-07 07:58:32 51°13.152 2°51.086 156.8 5.5 177 9.9
2010-12-07 07:58:37 51°13.144 2°51.086 157.5 5.4 179 9.8
2010-12-07 07:58:42 51°13.137 2°51.087 158.3 5.5 179 9.8
2010-12-07 07:58:47 51°13.129 2°51.087 159.6 5.3 180 9.8
2010-12-07 07:58:52 51°13.122 2°51.086 161 5.3 184 9.8
2010-12-07 07:58:57 51°13.115 2°51.085 162.5 5.2 183 9.7
2010-12-07 07:59:02 51°13.107 2°51.084 163.9 5.3 186 9.8
2010-12-07 07:59:07 51°13.1 2°51.083 165.6 5 187 9.6
2010-12-07 07:59:12 51°13.093 2°51.081 167.4 5.1 191 9.6
2010-12-07 07:59:17 51°13.086 2°51.079 169.6 5.1 190 9.6
2010-12-07 07:59:22 51°13.08 2°51.076 171.6 5 193 9.5
2010-12-07 07:59:27 51°13.073 2°51.074 173.6 4.9 193 9.6
2010-12-07 07:59:32 51°13.066 2°51.07 175.5 5 197 9.4
2010-12-07 07:59:37 51°13.06 2°51.068 177.1 5 195 9.5
2010-12-07 07:59:42 51°13.053 2°51.063 179 4.8 201 9.3
2010-12-07 07:59:47 51°13.047 2°51.06 180.3 4.8 199 9.4
2010-12-07 07:59:52 51°13.041 2°51.056 181.9 4.8 201 9.4
2010-12-07 07:59:57 51°13.035 2°51.053 183.4 4.7 201 9.3
2010-12-07 08:00:02 51°13.029 2°51.048 183.9 4.7 203 9.3
2010-12-07 08:00:07 51°13.023 2°51.044 184.6 4.6 203 9.3
2010-12-07 08:00:12 51°13.017 2°51.04 185.3 4.5 204 9.3
2010-12-07 08:00:17 51°13.011 2°51.036 185.6 4.5 205 9.2
2010-12-07 08:00:22 51°13.006 2°51.033 185.9 4.4 203 9.3
2010-12-07 08:00:27 51°13.001 2°51.029 186.7 4.3 205 9.2
2010-12-07 08:00:32 51°12.995 2°51.025 187 4.3 205 9.2
2010-12-07 08:00:37 51°12.99 2°51.02 187.6 4.4 207 9.2
2010-12-07 08:00:42 51°12.985 2°51.016 188.4 4.3 205 9.2
2010-12-07 08:00:47 51°12.979 2°51.012 189 4.2 209 9.2
2010-12-07 08:00:52 51°12.974 2°51.008 189.7 4.2 206 9.1
2010-12-07 08:00:57 51°12.969 2°51.003 190.2 4.2 208 9.1
2010-12-07 08:01:02 51°12.964 2°50.999 191.3 4.1 208 9.1
2010-12-07 08:01:07 51°12.959 2°50.995 192.2 4.1 211 9
2010-12-07 08:01:12 51°12.954 2°50.99 193 4.1 209 9.2
2010-12-07 08:01:17 51°12.949 2°50.985 194.9 4 211 9
2010-12-07 08:01:22 51°12.944 2°50.981 195.7 4.1 210 9.1
2010-12-07 08:01:27 51°12.94 2°50.976 197.6 4 212 9.1
2010-12-07 08:01:32 51°12.935 2°50.971 198.7 4 215 9.1
2010-12-07 08:01:37 51°12.93 2°50.966 200.6 4 216 9
2010-12-07 08:01:42 51°12.926 2°50.961 202.5 4 217 9
2010-12-07 08:01:47 51°12.921 2°50.955 204.8 4 217 9.1
2010-12-07 08:01:52 51°12.917 2°50.949 205.7 4.1 222 8.9
2010-12-07 08:01:57 51°12.913 2°50.944 207.8 4 219 9.1
2010-12-07 08:02:02 51°12.909 2°50.938 209.2 4 221 8.9
2010-12-07 08:02:07 51°12.904 2°50.932 209.7 4 222 8.9
2010-12-07 08:02:12 51°12.9 2°50.927 210.2 4 221 8.9
2010-12-07 08:02:17 51°12.896 2°50.921 210.2 4 221 9.2
2010-12-07 08:02:22 51°12.892 2°50.915 210.4 3.9 222 8.9
2010-12-07 08:02:27 51°12.888 2°50.91 209.8 4 219 9.1
2010-12-07 08:02:32 51°12.884 2°50.903 209.8 4 223 8.8
2010-12-07 08:02:37 51°12.88 2°50.898 209.2 3.9 217 9
2010-12-07 08:02:42 51°12.876 2°50.891 209.3 4.1 224 9
2010-12-07 08:02:47 51°12.872 2°50.886 209 3.9 220 8.9
2010-12-07 08:02:52 51°12.867 2°50.88 208.8 4 223 8.9
2010-12-07 08:02:57 51°12.863 2°50.875 209 4 219 8.9
2010-12-07 08:03:01 51°12.859 2°50.87 208.8 4.1 222 8.9
2010-12-07 08:03:07 51°12.854 2°50.863 209.1 4 217 8.9
2010-12-07 08:03:13 51°12.849 2°50.855 209 4.2 225 8.9
2010-12-07 08:03:17 51°12.845 2°50.851 210.1 4.1 220 8.9
2010-12-07 08:03:21 51°12.842 2°50.846 210.8 4.2 225 8.9
2010-12-07 08:03:27 51°12.836 2°50.839 212.1 4.1 220 8.9
2010-12-07 08:03:32 51°12.833 2°50.833 213.5 4.2 224 9
2010-12-07 08:03:37 51°12.828 2°50.826 215.7 4.2 226 8.9
2010-12-07 08:03:42 51°12.824 2°50.819 217.1 4.2 227 8.8
2010-12-07 08:03:47 51°12.821 2°50.812 218.7 4.2 229 8.7
2010-12-07 08:03:52 51°12.817 2°50.805 221 4.1 227 8.8
2010-12-07 08:03:57 51°12.813 2°50.798 223 4.2 232 8.9
2010-12-07 08:04:01 51°12.81 2°50.793 224.6 4.2 230 8.8
2010-12-07 08:04:07 51°12.805 2°50.784 225.9 4.2 231 8.9
2010-12-07 08:04:12 51°12.802 2°50.776 227.5 4.2 234 8.7
2010-12-07 08:04:17 51°12.798 2°50.769 228.7 4.2 232 8.9
2010-12-07 08:04:21 51°12.796 2°50.763 230.4 4.2 236 8.8
2010-12-07 08:04:27 51°12.792 2°50.754 231.3 4.2 233 8.9
2010-12-07 08:04:32 51°12.789 2°50.746 232.1 4.2 239 8.8
2010-12-07 08:04:37 51°12.785 2°50.738 233.1 4.2 234 8.8
2010-12-07 08:04:42 51°12.782 2°50.73 233.8 4.3 238 8.9
2010-12-07 08:04:47 51°12.779 2°50.723 234.6 4.3 236 8.9
2010-12-07 08:04:52 51°12.775 2°50.715 235.2 4.3 238 8.9
2010-12-07 08:04:57 51°12.772 2°50.706 235.6 4.3 239 8.8
2010-12-07 08:05:02 51°12.769 2°50.698 235.8 4.3 238 8.7
2010-12-07 08:05:07 51°12.766 2°50.69 236.5 4.4 239 8.7
2010-12-07 08:05:12 51°12.763 2°50.681 236.4 4.4 238 8.9
2010-12-07 08:05:17 51°12.76 2°50.672 237 4.4 241 8.7
2010-12-07 08:05:22 51°12.757 2°50.664 236.8 4.5 239 8.8
2010-12-07 08:05:27 51°12.754 2°50.656 237.3 4.4 240 9
2010-12-07 08:05:32 51°12.751 2°50.647 237.3 4.4 240 8.7
2010-12-07 08:05:37 51°12.747 2°50.639 237.1 4.4 240 8.7
2010-12-07 08:05:42 51°12.744 2°50.631 237.3 4.4 239 8.8
2010-12-07 08:05:47 51°12.741 2°50.622 237 4.4 241 8.8
2010-12-07 08:05:52 51°12.738 2°50.614 236.8 4.4 238 8.8
2010-12-07 08:05:57 51°12.734 2°50.606 236.2 4.5 238 8.8
2010-12-07 08:06:02 51°12.731 2°50.598 236.1 4.4 239 8.8
2010-12-07 08:06:07 51°12.728 2°50.589 235.8 4.5 239 8.9
2010-12-07 08:06:12 51°12.725 2°50.58 235.2 4.5 239 8.7
2010-12-07 08:06:17 51°12.721 2°50.572 235.2 4.5 235 8.8
2010-12-07 08:06:22 51°12.718 2°50.564 234.5 4.5 239 8.8
2010-12-07 08:06:27 51°12.715 2°50.555 234.1 4.6 237 8.7
2010-12-07 08:06:32 51°12.711 2°50.547 233.7 4.5 238 8.7
2010-12-07 08:06:37 51°12.708 2°50.539 233.6 4.4 236 8.8
2010-12-07 08:06:42 51°12.704 2°50.531 233.2 4.5 238 8.8
2010-12-07 08:06:47 51°12.701 2°50.523 233 4.4 234 9
2010-12-07 08:06:52 51°12.697 2°50.514 232.6 4.4 239 8.8
2010-12-07 08:06:57 51°12.693 2°50.506 232.3 4.5 235 8.8
2010-12-07 08:07:02 51°12.69 2°50.498 232.1 4.5 237 8.7
2010-12-07 08:07:07 51°12.686 2°50.49 231.8 4.5 235 8.7
2010-12-07 08:07:12 51°12.683 2°50.482 231.9 4.5 238 8.7
2010-12-07 08:07:17 51°12.679 2°50.474 231.7 4.5 235 8.8
2010-12-07 08:07:22 51°12.676 2°50.466 231.6 4.5 237 8.8
2010-12-07 08:07:27 51°12.672 2°50.457 231.6 4.4 236 8.7
2010-12-07 08:07:32 51°12.669 2°50.449 231.8 4.4 233 9
2010-12-07 08:07:37 51°12.665 2°50.441 231.2 4.5 237 8.7
2010-12-07 08:07:41 51°12.662 2°50.435 231.3 4.5 233 8.8
2010-12-07 08:07:47 51°12.658 2°50.424 231.2 4.5 238 8.7
2010-12-07 08:07:52 51°12.654 2°50.417 230.9 4.5 234 8.6
2010-12-07 08:07:57 51°12.651 2°50.409 230.9 4.4 236 8.7
2010-12-07 08:08:02 51°12.647 2°50.401 231.1 4.5 233 8.7
2010-12-07 08:08:07 51°12.644 2°50.392 230.7 4.5 236 8.6
2010-12-07 08:08:12 51°12.64 2°50.384 230.9 4.5 232 8.7
2010-12-07 08:08:17 51°12.637 2°50.376 230.6 4.6 238 8.6
2010-12-07 08:08:22 51°12.633 2°50.368 230.8 4.5 232 8.7
2010-12-07 08:08:27 51°12.63 2°50.36 230.5 4.5 236 8.8
2010-12-07 08:08:32 51°12.626 2°50.352 230.5 4.5 233 8.7
2010-12-07 08:08:37 51°12.622 2°50.344 230.5 4.5 235 8.7
2010-12-07 08:08:42 51°12.618 2°50.336 230.4 4.5 233 8.7
2010-12-07 08:08:47 51°12.614 2°50.328 230.2 4.5 237 8.6
2010-12-07 08:08:52 51°12.611 2°50.32 230.3 4.5 233 8.7
2010-12-07 08:08:57 51°12.607 2°50.312 230.2 4.5 235 8.8
2010-12-07 08:09:02 51°12.603 2°50.304 229.9 4.5 234 8.7
2010-12-07 08:09:07 51°12.6 2°50.296 229.9 4.5 235 8.6
2010-12-07 08:09:12 51°12.596 2°50.288 229.9 4.6 233 8.8
2010-12-07 08:09:17 51°12.593 2°50.279 229.9 4.5 236 8.6
2010-12-07 08:09:22 51°12.589 2°50.272 229.8 4.5 232 8.8
2010-12-07 08:09:27 51°12.585 2°50.264 229.6 4.4 234 8.8
2010-12-07 08:09:32 51°12.581 2°50.256 229.6 4.4 234 8.7
2010-12-07 08:09:37 51°12.578 2°50.248 229.6 4.5 236 8.6
2010-12-07 08:09:41 51°12.575 2°50.242 229.6 4.5 231 8.8
2010-12-07 08:09:47 51°12.571 2°50.232 229.4 4.5 236 8.6
2010-12-07 08:09:52 51°12.567 2°50.224 229.7 4.5 231 8.6
2010-12-07 08:09:57 51°12.563 2°50.216 229.4 4.5 236 8.7
2010-12-07 08:10:02 51°12.559 2°50.208 229.7 4.4 232 8.7
2010-12-07 08:10:07 51°12.556 2°50.199 229.5 4.5 238 8.6
2010-12-07 08:10:12 51°12.552 2°50.192 229.5 4.5 229 8.8
2010-12-07 08:10:17 51°12.549 2°50.183 229.4 4.6 237 8.6
2010-12-07 08:10:22 51°12.545 2°50.176 229.4 4.5 232 8.6
2010-12-07 08:10:27 51°12.541 2°50.167 229.3 4.5 235 8.7
2010-12-07 08:10:32 51°12.537 2°50.16 229.5 4.4 231 8.8
2010-12-07 08:10:37 51°12.534 2°50.151 229.3 4.6 236 8.6
2010-12-07 08:10:41 51°12.531 2°50.145 229.2 4.5 232 8.7
2010-12-07 08:10:47 51°12.527 2°50.136 229.4 4.5 235 8.6
2010-12-07 08:10:52 51°12.523 2°50.128 229.2 4.5 233 8.6
2010-12-07 08:10:57 51°12.519 2°50.12 229.3 4.5 233 8.6
2010-12-07 08:11:01 51°12.516 2°50.113 229.5 4.4 233 8.7
2010-12-07 08:11:07 51°12.512 2°50.104 229.4 4.5 234 8.6
2010-12-07 08:11:12 51°12.507 2°50.096 229.3 4.5 232 8.7
2010-12-07 08:11:17 51°12.504 2°50.088 229.4 4.5 235 8.6
2010-12-07 08:11:22 51°12.5 2°50.081 229.6 4.4 232 8.7
2010-12-07 08:11:27 51°12.497 2°50.072 229.6 4.5 236 8.7
2010-12-07 08:11:32 51°12.493 2°50.064 229.4 4.4 232 8.6
2010-12-07 08:11:37 51°12.489 2°50.056 229.4 4.5 235 8.7
2010-12-07 08:11:41 51°12.486 2°50.05 229.4 4.5 232 8.6
2010-12-07 08:11:47 51°12.482 2°50.04 229.4 4.4 234 8.6
2010-12-07 08:11:52 51°12.478 2°50.033 229.3 4.5 232 8.7
2010-12-07 08:11:57 51°12.474 2°50.025 229.4 4.4 235 8.5
2010-12-07 08:12:01 51°12.471 2°50.019 229.4 4.5 232 8.7
2010-12-07 08:12:07 51°12.467 2°50.009 229.3 4.5 235 8.6
2010-12-07 08:12:12 51°12.463 2°50.001 229.4 4.5 232 8.7
2010-12-07 08:12:17 51°12.459 2°49.993 229.4 4.4 234 8.9
2010-12-07 08:12:22 51°12.456 2°49.986 229.5 4.4 233 8.6
2010-12-07 08:12:27 51°12.452 2°49.978 229.4 4.5 231 8.7
2010-12-07 08:12:32 51°12.448 2°49.97 229.2 4.4 235 8.6
2010-12-07 08:12:37 51°12.445 2°49.962 229.4 4.4 231 8.7
2010-12-07 08:12:41 51°12.442 2°49.955 229.4 4.5 236 8.4
2010-12-07 08:12:47 51°12.437 2°49.946 229.5 4.5 230 8.5
2010-12-07 08:12:52 51°12.434 2°49.938 229.4 4.4 236 8.6
2010-12-07 08:12:57 51°12.43 2°49.931 229.5 4.3 232 8.6
2010-12-07 08:13:01 51°12.427 2°49.924 229.4 4.4 236 8.6
2010-12-07 08:13:07 51°12.423 2°49.915 229.5 4.3 232 8.6
2010-12-07 08:13:12 51°12.419 2°49.907 229.5 4.4 235 8.6
2010-12-07 08:13:17 51°12.414 2°49.899 230.1 4.5 234 8.7
2010-12-07 08:13:22 51°12.411 2°49.892 231.1 4.4 238 8.5
2010-12-07 08:13:27 51°12.408 2°49.884 231.6 4.4 234 8.6
2010-12-07 08:13:32 51°12.405 2°49.875 233.1 4.4 237 8.6
2010-12-07 08:13:37 51°12.402 2°49.867 234.1 4.4 237 8.6
2010-12-07 08:13:42 51°12.398 2°49.858 235 4.5 237 8.6
2010-12-07 08:13:47 51°12.395 2°49.85 236.1 4.4 238 8.5
2010-12-07 08:13:52 51°12.392 2°49.842 236.5 4.4 238 8.6
2010-12-07 08:13:57 51°12.389 2°49.834 237.4 4.4 241 8.4
2010-12-07 08:14:01 51°12.387 2°49.827 237.8 4.4 238 8.6
2010-12-07 08:14:07 51°12.383 2°49.817 238.1 4.4 242 8.5
2010-12-07 08:14:12 51°12.38 2°49.808 238.9 4.4 238 8.5
2010-12-07 08:14:17 51°12.377 2°49.8 239 4.5 240 8.7
2010-12-07 08:14:22 51°12.374 2°49.792 239.5 4.4 240 8.5
2010-12-07 08:14:27 51°12.371 2°49.784 239.6 4.5 240 8.5
2010-12-07 08:14:32 51°12.367 2°49.776 239.9 4.4 237 8.7
2010-12-07 08:14:37 51°12.365 2°49.767 239.7 4.5 243 8.5
2010-12-07 08:14:42 51°12.361 2°49.759 239.9 4.4 240 8.6
2010-12-07 08:14:47 51°12.358 2°49.751 239.9 4.4 240 8.7
2010-12-07 08:14:52 51°12.356 2°49.742 239.7 4.4 242 8.5
2010-12-07 08:14:57 51°12.352 2°49.734 239.9 4.4 238 8.6
2010-12-07 08:15:02 51°12.35 2°49.725 239.8 4.4 243 8.6
2010-12-07 08:15:07 51°12.347 2°49.717 239.6 4.3 242 8.4
2010-12-07 08:15:12 51°12.345 2°49.708 239.8 4.3 241 8.6
2010-12-07 08:15:17 51°12.342 2°49.7 239.7 4.3 240 8.5
2010-12-07 08:15:21 51°12.339 2°49.693 239.8 4.3 240 8.6
2010-12-07 08:15:27 51°12.336 2°49.683 239.7 4.3 240 8.7
2010-12-07 08:15:32 51°12.333 2°49.674 239.5 4.3 242 8.5
2010-12-07 08:15:37 51°12.329 2°49.667 239.7 4.3 238 8.5
2010-12-07 08:15:42 51°12.326 2°49.658 239.6 4.3 241 8.6
2010-12-07 08:15:47 51°12.324 2°49.65 239.6 4.4 241 8.5
2010-12-07 08:15:52 51°12.321 2°49.642 239.6 4.3 240 8.7
2010-12-07 08:15:57 51°12.318 2°49.633 239.6 4.3 240 8.6
2010-12-07 08:16:01 51°12.315 2°49.627 239.6 4.3 241 8.4
2010-12-07 08:16:07 51°12.312 2°49.617 239.7 4.3 239 8.6
2010-12-07 08:16:12 51°12.309 2°49.608 239.5 4.3 243 8.5
2010-12-07 08:16:17 51°12.306 2°49.6 239.6 4.3 239 8.6
2010-12-07 08:16:21 51°12.304 2°49.593 239.6 4.3 242 8.6
2010-12-07 08:16:27 51°12.3 2°49.583 239.7 4.3 239 8.4
2010-12-07 08:16:32 51°12.297 2°49.575 239.6 4.3 242 8.5
2010-12-07 08:16:37 51°12.294 2°49.566 239.6 4.3 239 8.6
2010-12-07 08:16:42 51°12.291 2°49.558 239.4 4.4 241 8.6
2010-12-07 08:16:47 51°12.288 2°49.55 239.3 4.4 241 8.5
2010-12-07 08:16:52 51°12.285 2°49.541 239 4.4 240 8.4
2010-12-07 08:16:57 51°12.282 2°49.533 239.2 4.3 241 8.4
2010-12-07 08:17:01 51°12.28 2°49.527 238.9 4.3 241 8.5
2010-12-07 08:17:07 51°12.276 2°49.517 238.9 4.3 239 8.5
2010-12-07 08:17:12 51°12.273 2°49.508 238.9 4.4 240 8.6
2010-12-07 08:17:17 51°12.27 2°49.5 238.5 4.4 242 8.3
2010-12-07 08:17:21 51°12.268 2°49.494 238.7 4.4 238 8.6
2010-12-07 08:17:27 51°12.264 2°49.483 238.5 4.4 242 8.5
2010-12-07 08:17:32 51°12.261 2°49.475 238.5 4.3 240 8.4
2010-12-07 08:17:37 51°12.258 2°49.467 238.4 4.3 239 8.7
2010-12-07 08:17:42 51°12.255 2°49.459 238.4 4.3 239 8.5
2010-12-07 08:17:47 51°12.252 2°49.45 238.5 4.3 241 8.5
2010-12-07 08:17:52 51°12.249 2°49.442 238.2 4.3 238 8.6
2010-12-07 08:17:57 51°12.246 2°49.434 238.5 4.4 241 8.5
2010-12-07 08:18:01 51°12.243 2°49.427 238.5 4.4 239 8.6
2010-12-07 08:18:07 51°12.24 2°49.418 238.6 4.3 242 8.4
2010-12-07 08:18:12 51°12.237 2°49.41 238.7 4.3 237 8.6
2010-12-07 08:18:17 51°12.234 2°49.401 238.7 4.3 243 8.4
2010-12-07 08:18:21 51°12.231 2°49.394 238.7 4.3 238 8.5
2010-12-07 08:18:27 51°12.228 2°49.383 238.7 4.4 241 8.5
2010-12-07 08:18:32 51°12.225 2°49.375 238.9 4.3 238 8.4
2010-12-07 08:18:37 51°12.222 2°49.367 238.8 4.4 240 8.6
2010-12-07 08:18:42 51°12.219 2°49.358 238.6 4.4 241 8.5
2010-12-07 08:18:47 51°12.216 2°49.35 238.8 4.4 239 8.5
2010-12-07 08:18:52 51°12.213 2°49.342 238.7 4.4 239 8.4
2010-12-07 08:18:57 51°12.21 2°49.333 238.8 4.4 238 8.6
2010-12-07 08:19:01 51°12.208 2°49.327 238.8 4.3 242 8.4
2010-12-07 08:19:07 51°12.204 2°49.317 238.9 4.4 238 8.6
2010-12-07 08:19:12 51°12.201 2°49.308 238.9 4.3 241 8.6
2010-12-07 08:19:17 51°12.198 2°49.301 238.9 4.3 237 8.6
2010-12-07 08:19:21 51°12.196 2°49.293 238.8 4.4 240 8.5
2010-12-07 08:19:27 51°12.192 2°49.284 238.8 4.4 240 8.4
2010-12-07 08:19:32 51°12.189 2°49.275 238.9 4.3 240 8.5
2010-12-07 08:19:37 51°12.186 2°49.267 238.8 4.4 240 8.5
2010-12-07 08:19:42 51°12.183 2°49.259 238.8 4.3 241 8.5
2010-12-07 08:19:47 51°12.18 2°49.25 238.8 4.4 239 8.5
2010-12-07 08:19:52 51°12.177 2°49.242 238.8 4.4 240 8.5
2010-12-07 08:19:57 51°12.174 2°49.234 238.6 4.3 240 8.6
2010-12-07 08:20:02 51°12.171 2°49.225 238.6 4.4 240 8.5
2010-12-07 08:20:07 51°12.168 2°49.217 238.8 4.4 239 8.5
2010-12-07 08:20:12 51°12.165 2°49.209 238.8 4.4 241 8.5
2010-12-07 08:20:17 51°12.161 2°49.201 238.8 4.3 240 8.5
2010-12-07 08:20:22 51°12.159 2°49.192 238.8 4.4 241 8.4
2010-12-07 08:20:27 51°12.155 2°49.184 238.7 4.5 239 8.4
2010-12-07 08:20:32 51°12.152 2°49.176 238.9 4.4 239 8.5
2010-12-07 08:20:37 51°12.15 2°49.167 238.6 4.3 241 8.5
2010-12-07 08:20:42 51°12.147 2°49.159 238.7 4.3 240 8.6
2010-12-07 08:20:47 51°12.144 2°49.151 238.6 4.4 240 8.4
2010-12-07 08:20:52 51°12.14 2°49.142 238.5 4.3 239 8.5
2010-12-07 08:20:57 51°12.138 2°49.134 238.6 4.4 241 8.6
2010-12-07 08:21:02 51°12.135 2°49.125 238.6 4.4 240 8.5
2010-12-07 08:21:07 51°12.131 2°49.117 238.6 4.4 241 8.6
2010-12-07 08:21:12 51°12.129 2°49.109 238.6 4.3 241 8.4
2010-12-07 08:21:17 51°12.125 2°49.101 238.7 4.4 240 8.5
2010-12-07 08:21:22 51°12.122 2°49.092 238.7 4.4 241 8.5
2010-12-07 08:21:27 51°12.119 2°49.084 238.6 4.4 238 8.6
2010-12-07 08:21:32 51°12.116 2°49.075 238.6 4.4 240 8.5
2010-12-07 08:21:37 51°12.113 2°49.067 238.7 4.4 238 8.7
2010-12-07 08:21:42 51°12.11 2°49.059 238.7 4.3 240 8.6
2010-12-07 08:21:47 51°12.107 2°49.05 238.5 4.4 240 8.5
2010-12-07 08:21:52 51°12.104 2°49.042 238.5 4.4 241 8.3
2010-12-07 08:21:57 51°12.101 2°49.034 238.3 4.3 238 8.5
2010-12-07 08:22:01 51°12.099 2°49.027 238.3 4.4 240 8.4
2010-12-07 08:22:07 51°12.095 2°49.017 238.2 4.4 240 8.5
2010-12-07 08:22:12 51°12.092 2°49.009 238.2 4.3 239 8.5
2010-12-07 08:22:17 51°12.089 2°49.001 238.1 4.3 241 8.3
2010-12-07 08:22:22 51°12.086 2°48.993 238.2 4.3 239 8.4
2010-12-07 08:22:27 51°12.083 2°48.984 238.2 4.4 240 8.4
2010-12-07 08:22:32 51°12.08 2°48.976 238.1 4.4 239 8.5
2010-12-07 08:22:37 51°12.077 2°48.967 238.2 4.4 241 8.3
2010-12-07 08:22:42 51°12.074 2°48.959 238.1 4.3 238 8.4
2010-12-07 08:22:47 51°12.07 2°48.951 238.2 4.4 238 8.5
2010-12-07 08:22:52 51°12.068 2°48.943 238.2 4.3 240 8.4
2010-12-07 08:22:57 51°12.064 2°48.935 237.9 4.3 238 8.5
2010-12-07 08:23:01 51°12.062 2°48.928 237.9 4.3 240 8.3
2010-12-07 08:23:07 51°12.058 2°48.918 238.1 4.3 236 8.6
2010-12-07 08:23:12 51°12.055 2°48.91 237.9 4.3 241 8.5
2010-12-07 08:23:17 51°12.052 2°48.902 237.9 4.3 237 8.5
2010-12-07 08:23:21 51°12.05 2°48.895 237.8 4.3 240 8.6
2010-12-07 08:23:27 51°12.046 2°48.885 237.8 4.3 240 8.4
2010-12-07 08:23:32 51°12.043 2°48.877 237.7 4.3 240 8.5
2010-12-07 08:23:37 51°12.04 2°48.869 237.6 4.3 240 8.4
2010-12-07 08:23:42 51°12.037 2°48.861 237.5 4.3 239 8.4
2010-12-07 08:23:47 51°12.034 2°48.852 237.8 4.3 240 8.4
2010-12-07 08:23:52 51°12.03 2°48.844 238.2 4.3 238 8.4
2010-12-07 08:23:57 51°12.027 2°48.836 237.8 4.4 242 8.3
2010-12-07 08:24:01 51°12.025 2°48.83 238 4.3 235 8.6
2010-12-07 08:24:07 51°12.021 2°48.819 237.8 4.3 242 8.5
2010-12-07 08:24:12 51°12.018 2°48.811 237.9 4.3 237 8.4
2010-12-07 08:24:17 51°12.015 2°48.803 237.8 4.3 242 8.4
2010-12-07 08:24:21 51°12.012 2°48.797 238.2 4.4 235 8.6
2010-12-07 08:24:27 51°12.009 2°48.786 238 4.4 243 8.2
2010-12-07 08:24:32 51°12.006 2°48.778 237.9 4.4 238 8.4
2010-12-07 08:24:37 51°12.003 2°48.77 238 4.4 241 8.4
2010-12-07 08:24:42 51°12 2°48.762 238 4.4 237 8.5
2010-12-07 08:24:47 51°11.997 2°48.753 238 4.3 241 8.5
2010-12-07 08:24:52 51°11.994 2°48.745 238.1 4.3 239 8.4
2010-12-07 08:24:57 51°11.991 2°48.737 238 4.3 241 8.4
2010-12-07 08:25:02 51°11.987 2°48.729 238.1 4.3 241 8.4
2010-12-07 08:25:07 51°11.984 2°48.721 238.1 4.4 239 8.5
2010-12-07 08:25:12 51°11.981 2°48.712 238.1 4.4 240 8.4
2010-12-07 08:25:17 51°11.978 2°48.704 238.1 4.3 239 8.4
2010-12-07 08:25:22 51°11.975 2°48.696 238 4.4 240 8.3
2010-12-07 08:25:27 51°11.972 2°48.688 238.1 4.3 239 8.5
2010-12-07 08:25:32 51°11.969 2°48.68 237.9 4.3 241 8.5
2010-12-07 08:25:37 51°11.966 2°48.672 238.1 4.3 239 8.3
2010-12-07 08:25:42 51°11.963 2°48.663 238 4.3 240 8.3
2010-12-07 08:25:47 51°11.96 2°48.655 238 4.4 238 8.4
2010-12-07 08:25:52 51°11.957 2°48.647 238.1 4.4 241 8.4
2010-12-07 08:25:57 51°11.953 2°48.639 238.1 4.3 240 8.5
2010-12-07 08:26:01 51°11.951 2°48.632 238.1 4.3 241 8.3
2010-12-07 08:26:07 51°11.948 2°48.622 238.2 4.3 239 8.4
2010-12-07 08:26:12 51°11.945 2°48.614 238.2 4.3 240 8.5
2010-12-07 08:26:17 51°11.942 2°48.605 238.4 4.3 241 8.3
2010-12-07 08:26:21 51°11.939 2°48.599 238.2 4.3 240 8.3
2010-12-07 08:26:27 51°11.935 2°48.589 238.5 4.3 239 8.5
2010-12-07 08:26:32 51°11.932 2°48.581 238.4 4.3 240 8.4
2010-12-07 08:26:37 51°11.929 2°48.573 238.3 4.3 240 8.4
2010-12-07 08:26:42 51°11.926 2°48.564 238.4 4.3 239 8.4
2010-12-07 08:26:47 51°11.923 2°48.556 238.2 4.3 240 8.3
2010-12-07 08:26:52 51°11.92 2°48.548 238.4 4.4 239 8.4
2010-12-07 08:26:57 51°11.917 2°48.539 238.3 4.3 242 8.3
2010-12-07 08:27:01 51°11.914 2°48.533 238.3 4.3 237 8.5
2010-12-07 08:27:07 51°11.911 2°48.523 238.7 4.3 241 8.4
2010-12-07 08:27:12 51°11.908 2°48.514 239 4.3 240 8.5
2010-12-07 08:27:17 51°11.905 2°48.506 240.1 4.4 243 8.4
2010-12-07 08:27:21 51°11.903 2°48.499 241 4.3 242 8.3
2010-12-07 08:27:27 51°11.9 2°48.489 241.9 4.3 243 8.3
2010-12-07 08:27:32 51°11.897 2°48.48 242.7 4.3 244 8.3
2010-12-07 08:27:37 51°11.894 2°48.472 243.3 4.3 243 8.3
2010-12-07 08:27:42 51°11.892 2°48.463 244 4.3 244 8.4
2010-12-07 08:27:47 51°11.889 2°48.455 244.6 4.3 244 8.4
2010-12-07 08:27:52 51°11.886 2°48.446 245.1 4.3 245 8.4
2010-12-07 08:27:57 51°11.884 2°48.437 245.5 4.3 245 8.4
2010-12-07 08:28:01 51°11.882 2°48.431 246.1 4.3 243 8.3
2010-12-07 08:28:07 51°11.879 2°48.42 246.3 4.3 245 8.3
2010-12-07 08:28:12 51°11.876 2°48.412 246.8 4.3 243 8.4
2010-12-07 08:28:17 51°11.874 2°48.403 247 4.3 248 8.4
2010-12-07 08:28:21 51°11.872 2°48.396 247.7 4.3 246 8.4
2010-12-07 08:28:27 51°11.87 2°48.385 248.3 4.3 249 8.4
2010-12-07 08:28:32 51°11.867 2°48.376 249.5 4.3 248 8.4
2010-12-07 08:28:37 51°11.865 2°48.368 250.5 4.3 250 8.3
2010-12-07 08:28:42 51°11.863 2°48.359 251.4 4.3 248 8.3
2010-12-07 08:28:47 51°11.861 2°48.35 252.2 4.3 250 8.4
2010-12-07 08:28:52 51°11.859 2°48.341 253.2 4.3 249 8.4
2010-12-07 08:28:57 51°11.857 2°48.332 253.6 4.3 251 8.4
2010-12-07 08:29:01 51°11.856 2°48.325 254.2 4.2 252 8.3
2010-12-07 08:29:07 51°11.853 2°48.314 254.7 4.2 251 8.4
2010-12-07 08:29:12 51°11.851 2°48.305 254.8 4.2 253 8.3
2010-12-07 08:29:17 51°11.849 2°48.296 255.5 4.3 250 8.5
2010-12-07 08:29:21 51°11.848 2°48.289 255.6 4.3 254 8.5
2010-12-07 08:29:27 51°11.846 2°48.279 256.2 4.2 250 8.5
2010-12-07 08:29:32 51°11.844 2°48.269 256.1 4.2 256 8.4
2010-12-07 08:29:37 51°11.842 2°48.261 256.4 4.3 250 8.5
2010-12-07 08:29:42 51°11.841 2°48.252 256.6 4.3 254 8.5
2010-12-07 08:29:47 51°11.839 2°48.243 256.8 4.2 253 8.5
2010-12-07 08:29:52 51°11.838 2°48.234 256.9 4.2 255 8.4
2010-12-07 08:29:57 51°11.836 2°48.225 256.9 4.2 253 8.5
2010-12-07 08:30:02 51°11.834 2°48.216 256.7 4.3 254 8.4
2010-12-07 08:30:07 51°11.832 2°48.207 256.7 4.2 252 8.5
2010-12-07 08:30:12 51°11.831 2°48.198 256.7 4.3 255 8.5
2010-12-07 08:30:17 51°11.829 2°48.189 256.8 4.3 251 8.4
2010-12-07 08:30:22 51°11.827 2°48.18 256.7 4.2 254 8.4
2010-12-07 08:30:27 51°11.826 2°48.171 256.7 4.2 254 8.5
2010-12-07 08:30:32 51°11.824 2°48.162 256.7 4.2 253 8.5
2010-12-07 08:30:37 51°11.822 2°48.153 256.8 4.2 251 8.5
2010-12-07 08:30:42 51°11.821 2°48.144 256.5 4.2 254 8.5
2010-12-07 08:30:47 51°11.819 2°48.136 256.3 4.2 250 8.6
2010-12-07 08:30:52 51°11.817 2°48.126 256.2 4.2 255 8.5
2010-12-07 08:30:57 51°11.815 2°48.118 256.1 4.3 249 8.5
2010-12-07 08:31:01 51°11.814 2°48.11 256 4.3 255 8.4
2010-12-07 08:31:07 51°11.811 2°48.1 255.8 4.2 251 8.3
2010-12-07 08:31:12 51°11.81 2°48.091 256.2 4.2 253 8.6
2010-12-07 08:31:17 51°11.808 2°48.082 257.2 4.2 254 8.6
2010-12-07 08:31:21 51°11.807 2°48.075 258.3 4.2 256 8.4
2010-12-07 08:31:27 51°11.805 2°48.064 259 4.3 254 8.5
2010-12-07 08:31:32 51°11.804 2°48.055 259.7 4.2 257 8.3
2010-12-07 08:31:37 51°11.802 2°48.046 260.5 4.2 255 8.6
2010-12-07 08:31:42 51°11.801 2°48.037 261.3 4.2 257 8.3
2010-12-07 08:31:47 51°11.8 2°48.027 261.9 4.2 256 8.4
2010-12-07 08:31:52 51°11.798 2°48.018 262.4 4.2 259 8.5
2010-12-07 08:31:57 51°11.797 2°48.009 263 4.2 258 8.5
2010-12-07 08:32:01 51°11.796 2°48.002 263.4 4.2 257 8.5
2010-12-07 08:32:07 51°11.795 2°47.991 263.7 4.2 258 8.5
2010-12-07 08:32:12 51°11.794 2°47.982 264 4.2 260 8.4
2010-12-07 08:32:17 51°11.792 2°47.973 264.1 4.2 258 8.5
2010-12-07 08:32:21 51°11.791 2°47.966 264.3 4.2 260 8.4
2010-12-07 08:32:27 51°11.79 2°47.955 264.3 4.3 256 8.4
2010-12-07 08:32:32 51°11.789 2°47.946 264.3 4.2 258 8.6
2010-12-07 08:32:37 51°11.788 2°47.936 264.4 4.2 259 8.4
2010-12-07 08:32:42 51°11.786 2°47.927 264.5 4.2 257 8.5
2010-12-07 08:32:47 51°11.785 2°47.918 264.4 4.2 257 8.6
2010-12-07 08:32:52 51°11.784 2°47.909 264.4 4.2 259 8.4
2010-12-07 08:32:57 51°11.783 2°47.9 264.2 4.2 257 8.6
2010-12-07 08:33:02 51°11.782 2°47.891 264.3 4.2 258 8.6
2010-12-07 08:33:07 51°11.781 2°47.882 264.3 4.2 259 8.5
2010-12-07 08:33:12 51°11.779 2°47.873 264.3 4.2 257 8.6
2010-12-07 08:33:17 51°11.778 2°47.864 264.3 4.2 259 8.5
2010-12-07 08:33:22 51°11.777 2°47.855 264.6 4.2 258 8.5
2010-12-07 08:33:27 51°11.776 2°47.846 264.4 4.2 258 8.6
2010-12-07 08:33:32 51°11.775 2°47.837 264.4 4.2 257 8.6
2010-12-07 08:33:37 51°11.774 2°47.827 264.2 4.2 260 8.5
2010-12-07 08:33:42 51°11.772 2°47.818 264.1 4.2 257 8.6
2010-12-07 08:33:47 51°11.771 2°47.809 263.9 4.2 258 8.5
2010-12-07 08:33:52 51°11.77 2°47.8 263.6 4.2 255 8.7
2010-12-07 08:33:57 51°11.769 2°47.791 263.6 4.2 260 8.6
2010-12-07 08:34:01 51°11.768 2°47.784 263.6 4.2 257 8.7
2010-12-07 08:34:07 51°11.766 2°47.773 263.5 4.2 260 8.5
2010-12-07 08:34:12 51°11.765 2°47.763 263.3 4.2 255 8.6
2010-12-07 08:34:17 51°11.764 2°47.754 263.1 4.2 259 8.6
2010-12-07 08:34:21 51°11.763 2°47.747 263.2 4.2 258 8.7
2010-12-07 08:34:27 51°11.761 2°47.736 263.3 4.2 260 8.7
2010-12-07 08:34:32 51°11.76 2°47.727 263 4.2 258 8.6
2010-12-07 08:34:37 51°11.759 2°47.718 263.6 4.3 258 8.6
2010-12-07 08:34:42 51°11.758 2°47.709 264.6 4.2 263 8.7
2010-12-07 08:34:47 51°11.757 2°47.699 266.5 4.2 262 8.8
2010-12-07 08:34:52 51°11.757 2°47.69 268.6 4.1 265 8.7
2010-12-07 08:34:57 51°11.756 2°47.682 270.8 4.1 262 8.7
2010-12-07 08:35:02 51°11.756 2°47.672 273.1 4.1 269 8.7
2010-12-07 08:35:07 51°11.755 2°47.663 275 4.1 266 8.9
2010-12-07 08:35:12 51°11.756 2°47.654 276.8 4 274 8.7
2010-12-07 08:35:17 51°11.756 2°47.645 279.1 4.1 270 8.7
2010-12-07 08:35:22 51°11.756 2°47.636 280.7 4 275 8.7
2010-12-07 08:35:27 51°11.756 2°47.628 282.1 4.1 270 8.8
2010-12-07 08:35:32 51°11.756 2°47.619 283.2 3.9 273 9
2010-12-07 08:35:37 51°11.757 2°47.611 284.2 3.9 274 8.7
2010-12-07 08:35:42 51°11.757 2°47.602 285 3.7 273 8.7
2010-12-07 08:35:47 51°11.757 2°47.594 284.9 3.7 274 8.8
2010-12-07 08:35:52 51°11.757 2°47.586 285.2 3.7 272 8.9
2010-12-07 08:35:57 51°11.757 2°47.578 285.1 3.6 275 9.1
2010-12-07 08:36:02 51°11.757 2°47.57 285.1 3.6 271 9
2010-12-07 08:36:07 51°11.758 2°47.562 284.7 3.5 273 8.9
2010-12-07 08:36:12 51°11.757 2°47.555 284.5 3.5 269 9.1
2010-12-07 08:36:17 51°11.758 2°47.547 284.2 3.4 272 9.1
2010-12-07 08:36:21 51°11.758 2°47.541 283.9 3.5 272 9.1
2010-12-07 08:36:27 51°11.758 2°47.532 283.4 3.4 271 9
2010-12-07 08:36:32 51°11.758 2°47.524 283.2 3.5 270 9.1
2010-12-07 08:36:37 51°11.758 2°47.517 282.8 3.4 270 9.2
2010-12-07 08:36:42 51°11.758 2°47.509 282.7 3.4 272 9.2
2010-12-07 08:36:47 51°11.758 2°47.502 282.5 3.4 269 9.2
2010-12-07 08:36:52 51°11.758 2°47.494 282.3 3.4 269 9.2
2010-12-07 08:36:57 51°11.758 2°47.487 282.1 3.4 268 9.3
2010-12-07 08:37:01 51°11.758 2°47.481 281.7 3.3 270 9.3
2010-12-07 08:37:07 51°11.757 2°47.472 281.6 3.3 268 9.3
2010-12-07 08:37:12 51°11.757 2°47.465 281.4 3.3 270 9.3
2010-12-07 08:37:17 51°11.757 2°47.458 281.6 3.3 267 9.2
2010-12-07 08:37:22 51°11.757 2°47.451 281.6 3.3 269 9.3
2010-12-07 08:37:27 51°11.756 2°47.444 281.9 3.3 266 9.4
2010-12-07 08:37:32 51°11.756 2°47.436 282.3 3.2 268 9.4
2010-12-07 08:37:37 51°11.756 2°47.429 282.9 3.3 266 9.3
2010-12-07 08:37:42 51°11.756 2°47.422 283.1 3.2 269 9.4
2010-12-07 08:37:47 51°11.756 2°47.415 283.9 3.2 270 9.4
2010-12-07 08:37:52 51°11.756 2°47.408 284.2 3.3 269 9.6
2010-12-07 08:37:57 51°11.756 2°47.401 285 3.2 268 9.6
2010-12-07 08:38:01 51°11.757 2°47.395 285.9 3.2 271 9.5
2010-12-07 08:38:07 51°11.756 2°47.386 286.4 3.3 269 9.6
2010-12-07 08:38:12 51°11.757 2°47.379 286.8 3.2 271 9.6
2010-12-07 08:38:17 51°11.757 2°47.372 287.8 3.2 271 9.5
2010-12-07 08:38:21 51°11.757 2°47.367 288.6 3.1 272 9.6
2010-12-07 08:38:27 51°11.757 2°47.358 289.2 3.2 274 9.8
2010-12-07 08:38:32 51°11.757 2°47.351 290.3 3.1 272 9.6
2010-12-07 08:38:37 51°11.758 2°47.344 290.9 3.2 275 9.6
2010-12-07 08:38:42 51°11.758 2°47.337 291.9 3.1 274 9.7
2010-12-07 08:38:47 51°11.759 2°47.33 292.9 3.1 277 9.7
2010-12-07 08:38:52 51°11.759 2°47.323 294.3 3.2 275 9.8
2010-12-07 08:38:57 51°11.76 2°47.316 296 3.2 279 9.8
2010-12-07 08:39:02 51°11.76 2°47.31 297.6 3.2 277 9.9
2010-12-07 08:39:07 51°11.761 2°47.303 299.1 3.1 282 9.9
2010-12-07 08:39:12 51°11.762 2°47.296 301.4 3.1 283 9.8
2010-12-07 08:39:17 51°11.763 2°47.29 303.3 3.1 283 10
2010-12-07 08:39:22 51°11.764 2°47.283 305 3 284 9.9
2010-12-07 08:39:27 51°11.765 2°47.277 306.6 3 286 10
2010-12-07 08:39:32 51°11.766 2°47.271 308.5 3 287 9.9
2010-12-07 08:39:37 51°11.768 2°47.264 310.7 3 288 10
2010-12-07 08:39:42 51°11.769 2°47.258 312.6 3.1 291 10.1
2010-12-07 08:39:47 51°11.771 2°47.252 314 3 291 10.1
2010-12-07 08:39:52 51°11.773 2°47.246 315.8 3 293 10.2
2010-12-07 08:39:57 51°11.774 2°47.24 317.7 2.9 294 10.2
2010-12-07 08:40:01 51°11.775 2°47.235 319.3 2.9 295 10.3
2010-12-07 08:40:07 51°11.777 2°47.229 320.2 2.8 293 10.3
2010-12-07 08:40:12 51°11.779 2°47.223 321.4 2.7 295 10.2
2010-12-07 08:40:17 51°11.78 2°47.218 322.7 2.6 295 10.3
2010-12-07 08:40:21 51°11.781 2°47.214 323.8 2.5 296 10.3
2010-12-07 08:40:27 51°11.784 2°47.207 324.9 2.6 295 10.3
2010-12-07 08:40:32 51°11.785 2°47.202 325.3 2.6 297 10.6
2010-12-07 08:40:37 51°11.787 2°47.197 326.4 2.6 296 10.5
2010-12-07 08:40:42 51°11.788 2°47.192 327.2 2.5 294 10.4
2010-12-07 08:40:47 51°11.79 2°47.187 327.9 2.6 299 10.4
2010-12-07 08:40:52 51°11.792 2°47.182 328.7 2.7 302 10.6
2010-12-07 08:40:57 51°11.794 2°47.177 329.6 2.9 306 10.5
2010-12-07 08:41:02 51°11.798 2°47.171 333.2 3.3 314 10.5
2010-12-07 08:41:07 51°11.802 2°47.167 340.6 3.6 326 10.8
2010-12-07 08:41:12 51°11.807 2°47.163 347.8 3.9 334 10.6
2010-12-07 08:41:17 51°11.811 2°47.161 355.9 3.7 342 10.7
2010-12-07 08:41:22 51°11.817 2°47.16 2.2 3.8 351 10.8
2010-12-07 08:41:27 51°11.822 2°47.161 10.4 3.8 4 10.5
2010-12-07 08:41:32 51°11.827 2°47.163 20.2 3.8 14 11
2010-12-07 08:41:37 51°11.832 2°47.166 26.7 3.7 23 10.9
2010-12-07 08:41:42 51°11.835 2°47.172 34.9 3.6 38 11
2010-12-07 08:41:47 51°11.839 2°47.178 42.9 3.7 49 11.1
2010-12-07 08:41:52 51°11.842 2°47.184 50.7 3.6 54 11.1
2010-12-07 08:41:57 51°11.843 2°47.19 57.5 3.3 64 10.9
2010-12-07 08:42:01 51°11.844 2°47.195 62.4 2.9 69 11
2010-12-07 08:42:07 51°11.846 2°47.202 65.2 2.7 72 11.1
2010-12-07 08:42:12 51°11.847 2°47.207 67.3 2.4 74 10.9
2010-12-07 08:42:17 51°11.848 2°47.212 68.8 2.3 76 10.9
2010-12-07 08:42:21 51°11.848 2°47.215 70 2.1 79 10.8
2010-12-07 08:42:27 51°11.848 2°47.22 70.9 1.9 82 10.8
2010-12-07 08:42:32 51°11.849 2°47.224 71.8 1.8 84 10.9
2010-12-07 08:42:37 51°11.849 2°47.228 72.5 1.7 87 10.9
2010-12-07 08:42:42 51°11.849 2°47.231 73.1 1.6 84 10.9
2010-12-07 08:42:47 51°11.849 2°47.234 73.7 1.4 88 10.9
2010-12-07 08:42:52 51°11.849 2°47.238 74.2 1.4 90 11
2010-12-07 08:42:57 51°11.849 2°47.24 75 1.3 91 10.8
2010-12-07 08:43:01 51°11.848 2°47.242 75.1 1.2 97 10.8
2010-12-07 08:43:07 51°11.848 2°47.246 75.7 1.2 103 10.9
2010-12-07 08:43:12 51°11.847 2°47.248 76 1.1 106 10.8
2010-12-07 08:43:17 51°11.847 2°47.25 76.3 1 115 10.9
2010-12-07 08:43:21 51°11.847 2°47.252 76.6 1 107 10.9
2010-12-07 08:43:27 51°11.847 2°47.254 77 0.9 110 10.6
2010-12-07 08:43:32 51°11.846 2°47.256 77.1 0.8 110 11
2010-12-07 08:43:37 51°11.846 2°47.257 77.2 0.9 112 10.9
2010-12-07 08:43:42 51°11.845 2°47.259 77.5 0.9 118 10.9
2010-12-07 08:43:47 51°11.844 2°47.261 77.8 1 120 10.9